Time;durP1;ratioP1;P1;durP2;ratioP2;P2;SDS_P1;SDS_P2;PMS_P1;PMS_P2;Temp;Humidity;BMP_temperature;BMP_pressure;BME280_temperature;BME280_humidity;BME280_pressure;Samples;Min_cycle;Max_cycle;Signal;HPM_P1;HPM_P2
2023/07/24 00:00:42;;;;;;;3.75;3.08;;;18.80;99.90;;;;;;5036640;28;20198;-79
2023/07/24 00:03:10;;;;;;;4.03;3.00;;;18.80;99.90;;;;;;5031292;28;20195;-78
2023/07/24 00:05:37;;;;;;;3.78;2.97;;;18.80;99.90;;;;;;5036998;28;20661;-78
2023/07/24 00:08:06;;;;;;;3.20;2.67;;;18.80;99.90;;;;;;5038465;28;20218;-78
2023/07/24 00:10:35;;;;;;;4.75;3.17;;;18.80;99.90;;;;;;5037221;28;20198;-78
2023/07/24 00:13:03;;;;;;;4.55;3.00;;;18.70;99.90;;;;;;5033176;28;20269;-79
2023/07/24 00:15:30;;;;;;;3.72;2.83;;;18.60;99.90;;;;;;5035647;28;20564;-78
2023/07/24 00:17:57;;;;;;;3.80;3.35;;;18.60;99.90;;;;;;5037243;28;20229;-79
2023/07/24 00:20:26;;;;;;;3.22;2.80;;;18.60;99.90;;;;;;5056074;28;20186;-78
2023/07/24 00:22:53;;;;;;;4.03;2.80;;;18.70;99.90;;;;;;5036899;28;20660;-79
2023/07/24 00:25:20;;;;;;;4.13;3.10;;;18.60;99.90;;;;;;5031220;28;20212;-78
2023/07/24 00:27:49;;;;;;;3.15;2.67;;;18.60;99.90;;;;;;5037202;28;20233;-78
2023/07/24 00:30:17;;;;;;;3.28;2.47;;;18.60;99.90;;;;;;5037218;28;20194;-78
2023/07/24 00:32:44;;;;;;;5.15;3.08;;;18.50;99.90;;;;;;5037490;28;20214;-78
2023/07/24 00:35:27;;;;;;;4.45;3.20;;;18.50;99.90;;;;;;5040316;28;20218;-78
2023/07/24 00:37:55;;;;;;;4.40;3.15;;;18.50;99.90;;;;;;5052307;28;20233;-81
2023/07/24 00:40:22;;;;;;;5.13;3.67;;;18.50;99.90;;;;;;5049344;28;20198;-78
2023/07/24 00:42:51;;;;;;;4.05;3.15;;;18.50;99.90;;;;;;5033192;28;20195;-80
2023/07/24 00:45:18;;;;;;;4.07;3.13;;;18.60;99.90;;;;;;5025060;28;20202;-78
2023/07/24 00:47:46;;;;;;;13.13;3.78;;;18.50;99.90;;;;;;5034968;28;20225;-79
2023/07/24 00:50:14;;;;;;;5.10;3.17;;;18.60;99.90;;;;;;5029262;28;20214;-78
2023/07/24 00:52:43;;;;;;;5.00;3.22;;;18.60;99.90;;;;;;5028807;28;20206;-78
2023/07/24 00:55:16;;;;;;;4.68;3.20;;;18.60;99.90;;;;;;5036130;28;20206;-78
2023/07/24 00:57:44;;;;;;;3.30;3.00;;;18.60;99.90;;;;;;5032237;28;20218;-78
2023/07/24 01:00:14;;;;;;;3.90;2.85;;;18.60;99.90;;;;;;5047259;28;20194;-78
2023/07/24 01:02:41;;;;;;;3.42;2.85;;;18.60;99.90;;;;;;5053843;28;20194;-79
2023/07/24 01:05:15;;;;;;;3.25;2.95;;;18.60;99.90;;;;;;5053601;28;20203;-78
2023/07/24 01:07:43;;;;;;;4.25;3.30;;;18.60;99.90;;;;;;5031157;28;20221;-79
2023/07/24 01:10:11;;;;;;;3.95;3.33;;;18.60;99.90;;;;;;5033475;28;20675;-78
2023/07/24 01:12:43;;;;;;;4.32;3.10;;;18.60;99.90;;;;;;5036373;28;20649;-80
2023/07/24 01:15:21;;;;;;;4.28;3.17;;;18.60;99.90;;;;;;5033200;28;20198;-78
2023/07/24 01:17:57;;;;;;;3.80;3.40;;;18.60;99.90;;;;;;5051235;28;20214;-79
2023/07/24 01:20:27;;;;;;;5.22;3.03;;;18.60;99.90;;;;;;5043143;28;20194;-78
2023/07/24 01:23:21;;;;;;;6.13;2.97;;;18.60;99.90;;;;;;5028945;28;20951;-78
2023/07/24 01:26:00;;;;;;;4.90;3.00;;;18.60;99.90;;;;;;5036093;28;20203;-78
2023/07/24 01:28:27;;;;;;;3.85;3.33;;;18.60;99.90;;;;;;5036894;28;20209;-78
2023/07/24 01:30:55;;;;;;;4.13;3.17;;;18.60;99.90;;;;;;5068118;28;20199;-79
2023/07/24 01:33:24;;;;;;;5.53;3.13;;;18.60;99.90;;;;;;5022566;28;20223;-80
2023/07/24 01:35:55;;;;;;;4.80;3.42;;;18.60;99.90;;;;;;5028197;28;20226;-78
2023/07/24 01:38:24;;;;;;;5.65;4.00;;;18.60;99.90;;;;;;5051481;28;20199;-78
2023/07/24 01:40:53;;;;;;;3.60;3.30;;;18.60;99.90;;;;;;5044087;28;20208;-78
2023/07/24 01:43:23;;;;;;;3.88;3.30;;;18.60;99.90;;;;;;5053701;28;20195;-78
2023/07/24 01:45:50;;;;;;;4.93;2.80;;;18.60;99.90;;;;;;5036291;28;20209;-77
2023/07/24 01:48:18;;;;;;;5.40;3.58;;;18.60;99.90;;;;;;5039921;28;20198;-78
2023/07/24 01:50:45;;;;;;;3.33;3.03;;;18.60;99.90;;;;;;5043035;28;20200;-79
2023/07/24 01:53:13;;;;;;;6.03;3.25;;;18.60;99.90;;;;;;5041213;28;20213;-78
2023/07/24 01:55:40;;;;;;;4.50;3.22;;;18.60;99.90;;;;;;5056339;28;20190;-78
2023/07/24 01:58:08;;;;;;;4.60;2.88;;;18.60;99.90;;;;;;5038926;28;20238;-79
2023/07/24 02:00:37;;;;;;;3.15;2.85;;;18.60;99.90;;;;;;5072096;28;20202;-78
2023/07/24 02:03:05;;;;;;;3.95;3.50;;;18.60;99.90;;;;;;5057546;28;20213;-78
2023/07/24 02:05:49;;;;;;;4.90;4.18;;;18.60;99.90;;;;;;5036428;28;20653;-78
2023/07/24 02:08:17;;;;;;;3.45;2.80;;;18.70;99.90;;;;;;5020302;28;20572;-78
2023/07/24 02:10:44;;;;;;;3.85;3.10;;;18.60;99.90;;;;;;5041344;28;20194;-78
2023/07/24 02:13:12;;;;;;;3.40;2.75;;;18.60;99.90;;;;;;5057300;28;20194;-78
2023/07/24 02:15:50;;;;;;;3.75;3.35;;;18.60;99.90;;;;;;5056620;28;20193;-79
2023/07/24 02:18:18;;;;;;;3.83;2.97;;;18.60;99.90;;;;;;5047419;28;20198;-78
2023/07/24 02:20:50;;;;;;;5.90;3.08;;;18.60;99.90;;;;;;5073421;28;20201;-78
2023/07/24 02:23:18;;;;;;;4.72;3.17;;;18.60;99.90;;;;;;5038643;28;20210;-81
2023/07/24 02:25:46;;;;;;;4.75;3.42;;;18.60;99.90;;;;;;5033749;28;20711;-78
2023/07/24 02:28:13;;;;;;;3.67;3.20;;;18.60;99.90;;;;;;5038151;28;20225;-78
2023/07/24 02:30:41;;;;;;;5.22;3.78;;;18.60;99.90;;;;;;5036379;28;20203;-78
2023/07/24 02:33:09;;;;;;;5.45;3.50;;;18.60;99.90;;;;;;5038096;28;20198;-78
2023/07/24 02:35:40;;;;;;;4.22;3.58;;;18.60;99.90;;;;;;5033866;28;20219;-78
2023/07/24 02:38:10;;;;;;;4.32;3.13;;;18.70;99.90;;;;;;5036213;28;20214;-78
2023/07/24 02:40:42;;;;;;;3.20;2.90;;;18.70;99.90;;;;;;5030889;28;20194;-78
2023/07/24 02:43:09;;;;;;;5.07;3.63;;;18.70;99.90;;;;;;5037528;28;20692;-78
2023/07/24 02:45:38;;;;;;;7.65;3.38;;;18.70;99.90;;;;;;5035073;28;20969;-79
2023/07/24 02:48:06;;;;;;;5.18;3.45;;;18.70;99.90;;;;;;5037482;28;20230;-78
2023/07/24 02:50:35;;;;;;;4.68;3.45;;;18.70;99.90;;;;;;5068306;28;20209;-78
2023/07/24 02:53:02;;;;;;;4.05;3.33;;;18.70;99.90;;;;;;5069524;28;20225;-79
2023/07/24 02:55:30;;;;;;;5.07;3.53;;;18.70;99.90;;;;;;5060354;28;20210;-78
2023/07/24 02:57:57;;;;;;;4.75;4.10;;;18.70;99.90;;;;;;5036142;28;20218;-78
2023/07/24 03:00:25;;;;;;;5.13;3.85;;;18.80;99.90;;;;;;5067974;28;20198;-78
2023/07/24 03:02:53;;;;;;;3.92;3.30;;;18.80;99.90;;;;;;5036726;28;20198;-78
2023/07/24 03:05:21;;;;;;;7.85;4.05;;;18.80;99.90;;;;;;5062420;28;20194;-78
2023/07/24 03:07:50;;;;;;;4.10;3.55;;;18.80;99.90;;;;;;5035491;28;20226;-78
2023/07/24 03:10:17;;;;;;;6.55;3.72;;;18.80;99.90;;;;;;5036629;28;20191;-78
2023/07/24 03:12:45;;;;;;;4.63;3.78;;;18.80;99.90;;;;;;5034773;28;20213;-78
2023/07/24 03:15:13;;;;;;;6.10;3.90;;;18.90;99.90;;;;;;5030376;28;20218;-80
2023/07/24 03:17:40;;;;;;;4.80;4.05;;;18.90;99.90;;;;;;5049810;28;20233;-78
2023/07/24 03:20:16;;;;;;;4.30;3.38;;;18.90;99.90;;;;;;5032125;28;20199;-80
2023/07/24 03:22:45;;;;;;;5.47;4.28;;;18.90;99.90;;;;;;5027075;28;20583;-80
2023/07/24 03:25:14;;;;;;;6.40;3.95;;;18.90;99.90;;;;;;5037237;28;20195;-78
2023/07/24 03:27:42;;;;;;;4.15;3.53;;;18.90;99.90;;;;;;5034590;28;20596;-80
2023/07/24 03:30:10;;;;;;;6.50;4.35;;;18.80;99.90;;;;;;5070451;28;20202;-79
2023/07/24 03:32:38;;;;;;;4.85;4.10;;;18.80;99.90;;;;;;5026910;28;20206;-78
2023/07/24 03:35:06;;;;;;;5.32;3.90;;;18.70;99.90;;;;;;5033204;28;20225;-78
2023/07/24 03:37:35;;;;;;;7.90;4.43;;;18.70;99.90;;;;;;5066775;28;20225;-78
2023/07/24 03:40:03;;;;;;;5.95;4.00;;;18.70;99.90;;;;;;5063904;28;20202;-80
2023/07/24 03:42:33;;;;;;;5.97;4.15;;;18.60;99.90;;;;;;5057519;28;20194;-78
2023/07/24 03:45:00;;;;;;;6.68;4.57;;;18.60;99.90;;;;;;5028682;28;20186;-78
2023/07/24 03:47:27;;;;;;;5.68;4.43;;;18.60;99.90;;;;;;5035502;28;20677;-78
2023/07/24 03:49:55;;;;;;;8.70;4.15;;;18.60;99.90;;;;;;5031539;28;20207;-78
2023/07/24 03:52:22;;;;;;;5.97;4.35;;;18.60;99.90;;;;;;5031894;28;20217;-78
2023/07/24 03:54:50;;;;;;;8.93;4.45;;;18.60;99.90;;;;;;5051934;28;20209;-78
2023/07/24 03:57:17;;;;;;;5.28;3.95;;;18.60;99.90;;;;;;5036207;28;20230;-78
2023/07/24 03:59:46;;;;;;;9.10;4.40;;;18.50;99.90;;;;;;5034733;28;20716;-78
2023/07/24 04:02:13;;;;;;;6.60;4.65;;;18.60;99.90;;;;;;5036685;28;20198;-78
2023/07/24 04:04:41;;;;;;;5.53;4.70;;;18.50;99.90;;;;;;5044136;28;20201;-78
2023/07/24 04:07:08;;;;;;;5.90;4.72;;;18.50;99.90;;;;;;5036762;28;20237;-78
2023/07/24 04:09:36;;;;;;;8.40;5.00;;;18.50;99.90;;;;;;5035630;28;20214;-80
2023/07/24 04:12:04;;;;;;;5.63;4.32;;;18.50;99.90;;;;;;5054902;28;20201;-79
2023/07/24 04:14:31;;;;;;;7.32;5.00;;;18.50;99.90;;;;;;5036007;28;20252;-78
2023/07/24 04:17:00;;;;;;;6.35;4.57;;;18.50;99.90;;;;;;5027443;28;20588;-78
2023/07/24 04:19:27;;;;;;;10.45;4.90;;;18.50;99.90;;;;;;5058374;28;20186;-78
2023/07/24 04:21:55;;;;;;;7.28;5.65;;;18.50;99.90;;;;;;5036924;28;20198;-78
2023/07/24 04:24:22;;;;;;;5.80;4.50;;;18.50;99.90;;;;;;5035461;28;20205;-78
2023/07/24 04:26:49;;;;;;;5.32;4.22;;;18.50;99.90;;;;;;5036495;28;20228;-77
2023/07/24 04:29:17;;;;;;;5.47;4.85;;;18.50;99.90;;;;;;5026497;28;20206;-78
2023/07/24 04:31:44;;;;;;;7.32;4.95;;;18.50;99.90;;;;;;5053365;28;20190;-78
2023/07/24 04:34:15;;;;;;;5.38;4.28;;;18.50;99.90;;;;;;5044935;28;20567;-78
2023/07/24 04:36:42;;;;;;;6.90;5.05;;;18.50;99.90;;;;;;5048487;28;20222;-79
2023/07/24 04:39:10;;;;;;;5.47;4.95;;;18.50;99.90;;;;;;5034945;28;20535;-81
2023/07/24 04:41:37;;;;;;;9.40;5.15;;;18.50;99.90;;;;;;5035752;28;20213;-78
2023/07/24 04:44:05;;;;;;;8.65;5.22;;;18.50;99.90;;;;;;5029606;28;20203;-78
2023/07/24 04:46:34;;;;;;;6.10;4.80;;;18.50;99.90;;;;;;5057763;28;20237;-79
2023/07/24 04:49:04;;;;;;;6.10;4.45;;;18.50;99.90;;;;;;5032345;28;20202;-79
2023/07/24 04:51:33;;;;;;;6.50;4.68;;;18.50;99.90;;;;;;5060478;28;20220;-80
2023/07/24 04:54:00;;;;;;;5.65;4.35;;;18.50;99.90;;;;;;5048077;28;21911;-80
2023/07/24 04:56:28;;;;;;;6.32;4.85;;;18.50;99.90;;;;;;5033574;28;20234;-80
2023/07/24 04:58:55;;;;;;;5.55;4.57;;;18.50;99.90;;;;;;5045817;28;20194;-80
2023/07/24 05:01:22;;;;;;;6.78;5.00;;;18.50;99.90;;;;;;5042559;28;20195;-79
2023/07/24 05:04:08;;;;;;;7.25;4.78;;;18.50;99.90;;;;;;5047479;28;20217;-79
2023/07/24 05:06:38;;;;;;;6.20;4.68;;;18.50;99.90;;;;;;5042866;28;20676;-81
2023/07/24 05:09:05;;;;;;;6.93;5.03;;;18.50;99.90;;;;;;5024913;28;20214;-80
2023/07/24 05:11:33;;;;;;;5.80;5.28;;;18.50;99.90;;;;;;5029766;28;20207;-81
2023/07/24 05:14:00;;;;;;;7.30;5.25;;;18.50;99.90;;;;;;5052680;28;20190;-80
2023/07/24 05:16:28;;;;;;;6.97;4.97;;;18.50;99.90;;;;;;5033585;28;20260;-80
2023/07/24 05:18:55;;;;;;;7.38;5.00;;;18.50;99.90;;;;;;5029369;28;20225;-80
2023/07/24 05:21:22;;;;;;;7.93;5.18;;;18.50;99.90;;;;;;5035177;28;20205;-82
2023/07/24 05:23:51;;;;;;;6.55;5.07;;;18.50;99.90;;;;;;5035094;28;20203;-80
2023/07/24 05:26:22;;;;;;;6.88;4.97;;;18.50;99.90;;;;;;5036355;28;20210;-80
2023/07/24 05:28:50;;;;;;;7.65;5.20;;;18.50;99.90;;;;;;5031925;28;20195;-80
2023/07/24 05:31:17;;;;;;;7.63;5.07;;;18.60;99.90;;;;;;5035151;28;20567;-80
2023/07/24 05:33:45;;;;;;;6.43;5.07;;;18.60;99.90;;;;;;5035462;28;20213;-80
2023/07/24 05:36:12;;;;;;;7.47;5.68;;;18.60;99.90;;;;;;5057631;28;20229;-79
2023/07/24 05:38:39;;;;;;;7.63;5.40;;;18.60;99.90;;;;;;5038359;28;20205;-80
2023/07/24 05:41:08;;;;;;;8.38;5.47;;;18.60;99.90;;;;;;5054777;28;20206;-79
2023/07/24 05:43:36;;;;;;;7.45;5.65;;;18.60;99.90;;;;;;5054950;28;20194;-80
2023/07/24 05:46:03;;;;;;;8.75;5.95;;;18.60;99.90;;;;;;5033881;28;20560;-80
2023/07/24 05:48:30;;;;;;;7.15;5.85;;;18.60;99.90;;;;;;5052350;28;20199;-79
2023/07/24 05:50:58;;;;;;;7.70;5.68;;;18.60;99.90;;;;;;5037292;28;20194;-80
2023/07/24 05:53:35;;;;;;;7.90;5.72;;;18.60;99.90;;;;;;5038391;28;20190;-80
2023/07/24 05:56:03;;;;;;;7.45;5.30;;;18.60;99.90;;;;;;5067430;28;20221;-80
2023/07/24 05:58:32;;;;;;;6.78;5.22;;;18.60;99.90;;;;;;5038186;28;20198;-80
2023/07/24 06:00:59;;;;;;;7.38;5.80;;;18.60;99.90;;;;;;5036231;28;20198;-79
2023/07/24 06:03:27;;;;;;;6.60;5.22;;;18.60;99.90;;;;;;5034011;28;20205;-79
2023/07/24 06:05:55;;;;;;;9.15;5.80;;;18.60;99.90;;;;;;5036660;28;20203;-79
2023/07/24 06:08:23;;;;;;;6.85;5.22;;;18.70;99.90;;;;;;5035492;28;20199;-79
2023/07/24 06:10:51;;;;;;;8.07;5.43;;;18.70;99.90;;;;;;5055704;28;20195;-79
2023/07/24 06:13:23;;;;;;;7.18;4.95;;;18.70;99.90;;;;;;5035323;28;20209;-78
2023/07/24 06:15:57;;;;;;;8.57;6.22;;;18.70;99.90;;;;;;5041991;28;20214;-78
2023/07/24 06:18:25;;;;;;;6.15;5.18;;;18.70;99.90;;;;;;5065597;28;22308;-79
2023/07/24 06:20:54;;;;;;;9.57;5.60;;;18.80;99.90;;;;;;5033594;28;20209;-79
2023/07/24 06:23:21;;;;;;;5.72;5.13;;;18.70;99.90;;;;;;5054942;28;20649;-81
2023/07/24 06:25:49;;;;;;;7.30;5.00;;;18.80;99.90;;;;;;5037071;28;20194;-79
2023/07/24 06:28:16;;;;;;;7.63;5.65;;;18.90;99.90;;;;;;5036416;28;20206;-79
2023/07/24 06:30:43;;;;;;;7.03;4.97;;;18.90;99.90;;;;;;5051389;28;20206;-79
2023/07/24 06:33:12;;;;;;;8.38;4.80;;;19.00;99.90;;;;;;5052920;28;20198;-78
2023/07/24 06:35:40;;;;;;;9.32;5.43;;;19.00;99.90;;;;;;5036675;28;20230;-80
2023/07/24 06:38:08;;;;;;;6.82;4.53;;;18.90;99.90;;;;;;5037766;28;20611;-79
2023/07/24 06:40:36;;;;;;;6.30;5.20;;;18.90;99.90;;;;;;5036572;28;20660;-79
2023/07/24 06:43:03;;;;;;;7.57;5.28;;;18.90;99.90;;;;;;5038562;28;20209;-79
2023/07/24 06:45:30;;;;;;;6.93;5.07;;;18.90;99.90;;;;;;5051576;28;20203;-79
2023/07/24 06:47:58;;;;;;;6.38;4.63;;;18.90;99.90;;;;;;5055068;28;20221;-80
2023/07/24 06:50:27;;;;;;;7.45;5.07;;;18.90;99.90;;;;;;5037848;28;20194;-79
2023/07/24 06:52:54;;;;;;;8.30;4.78;;;19.00;99.90;;;;;;5037064;28;20212;-78
2023/07/24 06:55:22;;;;;;;8.25;5.10;;;18.90;99.90;;;;;;5033210;28;20205;-79
2023/07/24 06:57:49;;;;;;;8.57;4.53;;;19.00;99.90;;;;;;5036592;28;20230;-78
2023/07/24 07:00:17;;;;;;;6.75;5.00;;;19.10;99.90;;;;;;5036189;28;20202;-78
2023/07/24 07:02:44;;;;;;;8.57;5.25;;;19.10;99.90;;;;;;5053054;28;20209;-79
2023/07/24 07:05:12;;;;;;;6.00;4.57;;;19.20;99.90;;;;;;5062704;28;20194;-79
2023/07/24 07:07:41;;;;;;;6.00;4.82;;;19.20;99.90;;;;;;5036980;28;20219;-79
2023/07/24 07:10:09;;;;;;;7.05;4.53;;;19.30;99.90;;;;;;5030560;28;20203;-79
2023/07/24 07:12:36;;;;;;;6.80;5.32;;;19.30;99.90;;;;;;5067826;28;20202;-79
2023/07/24 07:15:04;;;;;;;6.32;4.45;;;19.30;99.90;;;;;;5036284;28;20202;-80
2023/07/24 07:17:32;;;;;;;5.28;4.70;;;19.30;99.90;;;;;;5046740;28;20230;-79
2023/07/24 07:19:59;;;;;;;8.70;4.95;;;19.30;99.90;;;;;;5053913;28;20561;-78
2023/07/24 07:22:27;;;;;;;8.65;4.45;;;19.30;99.90;;;;;;5033674;28;20669;-80
2023/07/24 07:24:55;;;;;;;8.50;5.15;;;19.30;99.90;;;;;;5069619;28;20204;-78
2023/07/24 07:27:23;;;;;;;8.18;6.10;;;19.30;99.90;;;;;;5033522;28;20229;-79
2023/07/24 07:29:52;;;;;;;7.35;4.88;;;19.40;99.90;;;;;;5040073;28;20193;-79
2023/07/24 07:32:20;;;;;;;5.45;4.90;;;19.30;99.90;;;;;;5050885;28;20683;-78
2023/07/24 07:34:47;;;;;;;6.00;4.47;;;19.30;99.90;;;;;;5034744;28;20203;-79
2023/07/24 07:37:15;;;;;;;8.85;4.85;;;19.30;99.90;;;;;;5035499;28;20245;-78
2023/07/24 07:39:42;;;;;;;6.78;4.93;;;19.30;99.90;;;;;;5069682;28;20201;-80
2023/07/24 07:42:11;;;;;;;6.30;4.80;;;19.30;99.90;;;;;;5042144;28;20198;-79
2023/07/24 07:44:39;;;;;;;5.60;4.72;;;19.30;99.90;;;;;;5058004;28;20197;-78
2023/07/24 07:47:06;;;;;;;4.65;3.97;;;19.30;99.90;;;;;;5052191;28;20226;-78
2023/07/24 07:49:46;;;;;;;5.55;4.10;;;19.30;99.90;;;;;;5053878;28;20632;-77
2023/07/24 07:52:16;;;;;;;6.13;4.05;;;19.30;99.90;;;;;;5054540;28;20540;-77
2023/07/24 07:54:47;;;;;;;5.20;4.10;;;19.30;99.90;;;;;;5037219;28;20194;-78
2023/07/24 07:57:16;;;;;;;6.28;4.32;;;19.30;99.90;;;;;;5037551;28;20218;-77
2023/07/24 07:59:43;;;;;;;6.20;4.82;;;19.30;99.90;;;;;;5055111;28;20186;-78
2023/07/24 08:02:11;;;;;;;4.95;4.18;;;19.30;99.90;;;;;;5038008;28;20221;-78
2023/07/24 08:04:38;;;;;;;5.15;4.07;;;19.40;99.90;;;;;;5070717;28;20190;-78
2023/07/24 08:07:06;;;;;;;7.45;3.67;;;19.50;99.90;;;;;;5070827;28;20218;-78
2023/07/24 08:09:33;;;;;;;6.15;4.25;;;19.50;99.90;;;;;;5070941;28;20202;-77
2023/07/24 08:12:01;;;;;;;5.78;4.07;;;19.50;99.90;;;;;;5037605;28;20198;-78
2023/07/24 08:14:29;;;;;;;5.05;4.03;;;19.50;99.90;;;;;;5037162;28;20195;-78
2023/07/24 08:16:57;;;;;;;6.78;4.47;;;19.60;99.90;;;;;;5035743;28;20286;-78
2023/07/24 08:19:24;;;;;;;5.88;3.90;;;19.60;99.90;;;;;;5051769;28;20194;-78
2023/07/24 08:21:52;;;;;;;5.60;4.10;;;19.60;99.90;;;;;;5058435;28;20210;-77
2023/07/24 08:24:19;;;;;;;6.43;4.50;;;19.50;99.90;;;;;;5016763;28;20289;-77
2023/07/24 08:26:47;;;;;;;7.70;4.07;;;19.50;99.90;;;;;;5021866;28;20214;-78
2023/07/24 08:29:14;;;;;;;5.07;4.47;;;19.40;99.90;;;;;;5034273;28;20198;-77
2023/07/24 08:31:45;;;;;;;6.60;4.60;;;19.30;99.90;;;;;;5032366;28;20601;-78
2023/07/24 08:34:12;;;;;;;6.97;4.68;;;19.20;99.90;;;;;;5051554;28;20209;-78
2023/07/24 08:36:40;;;;;;;8.38;4.93;;;19.30;99.90;;;;;;5032253;28;20219;-78
2023/07/24 08:39:25;;;;;;;8.13;4.93;;;19.20;99.90;;;;;;5021510;28;20199;-79
2023/07/24 08:41:52;;;;;;;6.03;4.90;;;19.10;99.90;;;;;;5031143;28;20198;-78
2023/07/24 08:44:21;;;;;;;5.57;4.70;;;19.00;99.90;;;;;;5034283;28;20202;-78
2023/07/24 08:46:53;;;;;;;6.90;5.07;;;18.90;99.90;;;;;;5066482;28;20710;-79
2023/07/24 08:49:21;;;;;;;7.03;4.75;;;18.90;99.90;;;;;;5048791;28;20201;-78
2023/07/24 08:51:49;;;;;;;6.22;4.93;;;18.80;99.90;;;;;;5035846;28;20680;-78
2023/07/24 08:54:17;;;;;;;6.03;5.25;;;18.90;99.90;;;;;;5037676;28;20205;-78
2023/07/24 08:56:47;;;;;;;7.57;6.43;;;18.80;99.90;;;;;;5031084;28;20214;-78
2023/07/24 08:59:16;;;;;;;7.57;6.00;;;18.70;99.90;;;;;;5037384;28;20199;-78
2023/07/24 09:01:45;;;;;;;8.32;6.38;;;18.80;99.90;;;;;;5050538;28;20194;-78
2023/07/24 09:04:13;;;;;;;10.15;6.75;;;18.90;99.90;;;;;;5036982;28;20695;-78
2023/07/24 09:06:41;;;;;;;8.68;7.20;;;19.00;99.90;;;;;;5036461;28;20218;-78
2023/07/24 09:09:14;;;;;;;8.55;7.53;;;19.10;99.90;;;;;;5035516;28;20209;-78
2023/07/24 09:11:48;;;;;;;12.23;7.53;;;19.20;99.90;;;;;;5052632;28;20213;-80
2023/07/24 09:14:25;;;;;;;8.88;7.68;;;19.20;99.90;;;;;;5030441;28;20198;-78
2023/07/24 09:17:03;;;;;;;8.98;6.45;;;19.50;99.90;;;;;;5035021;28;20218;-78
2023/07/24 09:19:34;;;;;;;6.50;5.65;;;19.50;99.90;;;;;;5033226;28;20202;-78
2023/07/24 09:22:15;;;;;;;5.43;4.93;;;19.60;99.90;;;;;;5049512;28;20199;-78
2023/07/24 09:24:53;;;;;;;4.45;4.05;;;19.60;99.90;;;;;;5036100;28;20206;-78
2023/07/24 09:27:20;;;;;;;4.80;4.18;;;19.70;99.90;;;;;;5051420;28;20214;-78
2023/07/24 09:29:48;;;;;;;4.50;4.00;;;19.80;99.90;;;;;;5027691;28;20210;-78
2023/07/24 09:32:22;;;;;;;4.90;3.63;;;19.90;99.90;;;;;;5037023;28;20581;-78
2023/07/24 09:35:17;;;;;;;4.60;3.85;;;19.80;99.90;;;;;;5035999;28;20209;-78
2023/07/24 09:37:45;;;;;;;5.22;3.85;;;20.00;99.90;;;;;;5032003;28;20219;-78
2023/07/24 09:40:16;;;;;;;4.10;3.70;;;20.10;99.90;;;;;;5036936;28;20210;-78
2023/07/24 09:42:43;;;;;;;5.22;3.45;;;20.20;99.90;;;;;;5034664;28;20228;-78
2023/07/24 09:45:11;;;;;;;3.38;2.97;;;20.10;99.90;;;;;;5033312;28;20209;-78
2023/07/24 09:47:40;;;;;;;3.80;2.75;;;20.10;99.90;;;;;;5033687;28;20218;-78
2023/07/24 09:50:10;;;;;;;3.40;2.67;;;20.00;99.90;;;;;;5046403;28;20261;-78
2023/07/24 09:52:42;;;;;;;3.05;2.75;;;20.00;99.90;;;;;;5036264;28;20221;-78
2023/07/24 09:55:12;;;;;;;3.10;2.70;;;20.10;99.90;;;;;;5036552;28;20695;-79
2023/07/24 09:57:40;;;;;;;3.42;3.08;;;20.00;99.90;;;;;;5036217;28;20214;-79
2023/07/24 10:00:09;;;;;;;2.45;2.25;;;20.00;99.90;;;;;;5031208;28;20209;-81
2023/07/24 10:02:37;;;;;;;4.47;2.80;;;20.00;99.90;;;;;;5071904;28;20195;-80
2023/07/24 10:05:06;;;;;;;3.38;2.88;;;19.90;99.90;;;;;;5036284;28;20202;-80
2023/07/24 10:07:53;;;;;;;3.75;2.92;;;20.00;99.90;;;;;;5039387;28;20226;-82
2023/07/24 10:10:25;;;;;;;4.50;3.20;;;19.90;99.90;;;;;;5047215;28;20198;-78
2023/07/24 10:12:53;;;;;;;4.45;3.65;;;19.90;99.90;;;;;;5037053;28;20198;-78
2023/07/24 10:15:20;;;;;;;5.32;3.75;;;19.70;99.90;;;;;;5032945;28;20202;-79
2023/07/24 10:17:48;;;;;;;6.63;3.42;;;19.50;99.90;;;;;;5036282;28;20229;-79
2023/07/24 10:20:18;;;;;;;4.75;3.70;;;19.50;99.90;;;;;;5033092;28;20206;-79
2023/07/24 10:22:50;;;;;;;4.50;4.05;;;19.50;99.90;;;;;;5052287;28;20205;-79
2023/07/24 10:25:30;;;;;;;4.20;3.80;;;19.60;99.90;;;;;;5039217;28;20205;-79
2023/07/24 10:28:05;;;;;;;4.90;3.92;;;19.80;99.90;;;;;;5036283;28;20228;-79
2023/07/24 10:30:33;;;;;;;5.95;4.35;;;19.80;99.90;;;;;;5062728;28;20562;-79
2023/07/24 10:33:08;;;;;;;5.65;4.05;;;19.70;99.90;;;;;;5050112;28;20202;-80
2023/07/24 10:35:43;;;;;;;4.45;4.05;;;19.90;99.90;;;;;;5035155;28;20204;-80
2023/07/24 10:38:11;;;;;;;5.82;4.03;;;19.80;99.90;;;;;;5032532;28;20301;-82
2023/07/24 10:40:41;;;;;;;5.22;3.97;;;19.80;99.90;;;;;;5052217;28;20190;-82
2023/07/24 10:43:09;;;;;;;4.68;3.53;;;19.80;99.90;;;;;;5030404;28;20209;-82
2023/07/24 10:45:41;;;;;;;3.78;3.38;;;19.70;99.90;;;;;;5046405;28;20201;-80
2023/07/24 10:48:11;;;;;;;5.25;3.88;;;19.90;99.90;;;;;;5029343;28;20214;-80
2023/07/24 10:50:41;;;;;;;4.45;3.72;;;20.10;99.90;;;;;;5030595;28;20194;-80
2023/07/24 10:53:09;;;;;;;4.72;4.32;;;20.10;99.90;;;;;;5035360;28;20217;-79
2023/07/24 10:55:37;;;;;;;4.47;3.85;;;20.10;99.90;;;;;;5031935;28;20210;-80
2023/07/24 10:58:07;;;;;;;4.10;3.67;;;20.30;99.90;;;;;;5050047;28;20214;-83
2023/07/24 11:00:34;;;;;;;5.20;3.85;;;20.50;99.90;;;;;;5028696;28;20692;-80
2023/07/24 11:03:02;;;;;;;4.90;4.15;;;20.30;99.90;;;;;;5062915;28;20561;-80
2023/07/24 11:05:30;;;;;;;5.95;4.60;;;20.10;99.90;;;;;;5033449;28;20206;-80
2023/07/24 11:07:58;;;;;;;5.15;3.97;;;20.10;99.90;;;;;;5034940;28;20218;-81
2023/07/24 11:10:26;;;;;;;5.47;4.40;;;20.10;99.90;;;;;;5050317;28;20199;-80
2023/07/24 11:12:57;;;;;;;5.60;4.07;;;20.00;99.90;;;;;;5040179;28;20202;-82
2023/07/24 11:15:27;;;;;;;4.90;4.32;;;20.10;99.90;;;;;;5034776;28;20203;-81
2023/07/24 11:17:55;;;;;;;5.93;4.32;;;20.00;99.90;;;;;;5051961;28;20218;-81
2023/07/24 11:20:23;;;;;;;5.70;3.88;;;19.90;99.90;;;;;;5038681;28;20198;-81
2023/07/24 11:22:50;;;;;;;4.68;3.47;;;19.90;99.90;;;;;;5035900;28;20205;-82
2023/07/24 11:25:18;;;;;;;6.35;4.82;;;19.90;99.90;;;;;;5038437;28;20205;-82
2023/07/24 11:27:47;;;;;;;4.97;4.47;;;20.00;99.90;;;;;;5038973;28;20213;-82
2023/07/24 11:30:21;;;;;;;5.40;4.90;;;20.00;99.90;;;;;;5033727;28;20206;-82
2023/07/24 11:32:50;;;;;;;8.02;4.55;;;19.80;99.90;;;;;;5032273;28;20198;-82
2023/07/24 11:35:21;;;;;;;4.95;4.35;;;19.90;99.90;;;;;;5046399;28;20949;-83
2023/07/24 11:37:48;;;;;;;5.80;4.25;;;19.80;99.90;;;;;;5054101;28;20221;-81
2023/07/24 11:40:32;;;;;;;5.07;4.13;;;19.70;99.90;;;;;;5056123;28;20554;-81
2023/07/24 11:43:00;;;;;;;5.35;4.82;;;19.60;99.90;;;;;;5071486;28;20205;-81
2023/07/24 11:45:27;;;;;;;8.15;4.53;;;19.40;99.90;;;;;;5057155;28;20198;-82
2023/07/24 11:47:57;;;;;;;4.97;4.47;;;19.30;99.90;;;;;;5038087;28;20231;-82
2023/07/24 11:50:25;;;;;;;6.38;5.03;;;19.40;99.90;;;;;;5031368;28;20213;-82
2023/07/24 11:52:53;;;;;;;5.45;4.90;;;19.40;99.90;;;;;;5067631;28;20213;-83
2023/07/24 11:55:31;;;;;;;5.50;5.00;;;19.40;99.90;;;;;;5068635;28;20202;-82
2023/07/24 11:58:03;;;;;;;5.43;4.88;;;19.40;99.90;;;;;;5055719;28;20214;-81
2023/07/24 12:00:34;;;;;;;8.68;5.30;;;19.10;99.90;;;;;;5036925;28;20688;-81
2023/07/24 12:03:04;;;;;;;5.55;3.17;;;19.00;99.90;;;;;;5039179;28;20679;-82
2023/07/24 12:05:39;;;;;;;2.50;1.98;;;18.70;99.90;;;;;;5057834;28;20193;-81
2023/07/24 12:08:06;;;;;;;2.58;1.73;;;18.40;99.90;;;;;;5038251;28;20222;-81
2023/07/24 12:10:37;;;;;;;2.65;1.80;;;18.30;99.90;;;;;;5036543;28;20207;-81
2023/07/24 12:13:05;;;;;;;2.13;1.80;;;18.10;99.90;;;;;;5051470;28;20198;-82
2023/07/24 12:15:34;;;;;;;2.05;1.85;;;18.10;99.90;;;;;;5070087;28;20221;-82
2023/07/24 12:18:03;;;;;;;4.47;1.67;;;17.90;99.90;;;;;;5068322;28;20214;-81
2023/07/24 12:20:35;;;;;;;3.15;1.80;;;17.80;99.90;;;;;;5053109;28;20213;-81
2023/07/24 12:23:04;;;;;;;2.42;2.03;;;17.70;99.90;;;;;;5036684;28;20199;-81
2023/07/24 12:25:32;;;;;;;3.75;1.90;;;17.80;99.90;;;;;;5053202;28;20205;-82
2023/07/24 12:27:59;;;;;;;3.20;1.88;;;17.80;99.90;;;;;;5040386;28;20226;-82
2023/07/24 12:30:27;;;;;;;2.50;1.65;;;17.90;99.90;;;;;;5049826;28;20197;-82
2023/07/24 12:32:54;;;;;;;4.03;2.05;;;17.90;99.90;;;;;;5051000;28;20198;-82
2023/07/24 12:35:26;;;;;;;3.20;2.20;;;17.70;99.90;;;;;;5054294;28;20213;-81
2023/07/24 12:37:54;;;;;;;2.15;1.45;;;17.60;99.90;;;;;;5040117;28;20214;-82
2023/07/24 12:40:21;;;;;;;3.78;1.77;;;17.50;99.90;;;;;;5035963;28;20215;-81
2023/07/24 12:42:49;;;;;;;3.65;1.67;;;17.40;99.90;;;;;;5039437;28;20201;-82
2023/07/24 12:45:18;;;;;;;2.35;1.70;;;17.40;99.90;;;;;;5035790;28;20210;-81
2023/07/24 12:47:46;;;;;;;2.40;1.38;;;17.40;99.90;;;;;;5034522;28;20222;-82
2023/07/24 12:50:13;;;;;;;2.53;1.63;;;17.50;99.90;;;;;;5035191;28;20616;-81
2023/07/24 12:52:42;;;;;;;2.08;1.50;;;17.50;99.90;;;;;;5033340;28;20210;-81
2023/07/24 12:55:10;;;;;;;2.83;1.55;;;17.60;99.90;;;;;;5036789;28;20202;-81